Taasinge Maersk — OUSX2 — position and weather

sailwx.info

Track history (hours):
 
Tides and Currents Weather Stations Pressure Air Temp Water Temp Dewpoint Dewpoint Depression Visibility Wind Speed Wind Dir Waves Ship Positions

Taasinge Maersk

Last reported at 2018-Apr-21 08:47 UTC. Time now 2018-Apr-24 08:57 UTC.
Position N 07°09' W 013°27'.

Length 191 m; draft 9.4 m.

Type: Cargo ship. MMSI: 220157000.

Date/timePositionNaut miles runAvg speedWind from/ knotsBaromVisibWave heightAir tempDewpointWater temp
2018-Apr-21 08:47N 07°09' W 013°27'516.5
2018-Apr-21 08:30N 07°11' W 013°31'816.7
2018-Apr-21 08:00N 07°16' W 013°38'816.6
2018-Apr-21 07:30N 07°21' W 013°45'916.6
2018-Apr-21 07:00N 07°26' W 013°52'816.6
2018-Apr-21 06:31N 07°31' W 013°58'816.7
2018-Apr-21 06:01N 07°37' W 014°05'816.5
2018-Apr-21 05:31N 07°42' W 014°11'816.6
2018-Apr-21 05:01N 07°49' W 014°15'816.2
2018-Apr-21 04:31N 07°57' W 014°17'816.8
2018-Apr-21 04:00N 08°05' W 014°18'917.1
2018-Apr-21 03:30N 08°14' W 014°18'817.0
2018-Apr-21 03:01N 08°22' W 014°18'816.7
2018-Apr-21 02:31N 08°31' W 014°17'917.3
2018-Apr-21 02:01N 08°39' W 014°13'917.1
2018-Apr-21 01:30N 08°46' W 014°10'816.8
2018-Apr-21 01:01N 08°53' W 014°05'816.7
2018-Apr-21 00:31N 08°60' W 013°60'816.6
2018-Apr-21 00:00N 09°07' W 013°55'916.4
2018-Apr-20 23:25N 09°14' W 013°49'716.0
2018-Apr-20 23:01N 09°19' W 013°45'713.6
2018-Apr-20 22:30N 09°26' W 013°43'4 8.3
2018-Apr-20 22:00N 09°30' W 013°44'0 0.9
2018-Apr-20 21:29N 09°31' W 013°43'0 0.0
2018-Apr-20 20:59N 09°31' W 013°43'0 0.0
2018-Apr-20 20:29N 09°31' W 013°43'0 0.0
2018-Apr-20 19:59N 09°31' W 013°43'0 0.0
2018-Apr-20 19:29N 09°31' W 013°43'0 0.0
2018-Apr-20 18:59N 09°31' W 013°43'0 0.0
2018-Apr-20 18:29N 09°31' W 013°43'0 0.0
2018-Apr-20 17:59N 09°31' W 013°43'0 0.0
2018-Apr-20 17:29N 09°31' W 013°43'0 0.0
2018-Apr-20 16:59N 09°31' W 013°43'0 0.0
2018-Apr-20 16:29N 09°31' W 013°43'0 0.0
2018-Apr-20 15:59N 09°31' W 013°43'0 0.0
2018-Apr-20 15:29N 09°31' W 013°43'0 0.0
2018-Apr-20 14:59N 09°31' W 013°43'0 0.0
2018-Apr-20 14:29N 09°31' W 013°43'0 0.0
2018-Apr-20 13:59N 09°31' W 013°43'0 0.0
2018-Apr-20 13:29N 09°31' W 013°43'0 0.0
2018-Apr-20 12:59N 09°31' W 013°43'0 0.0
2018-Apr-20 12:29N 09°31' W 013°43'0 0.0
2018-Apr-20 11:59N 09°31' W 013°43'0 0.0
2018-Apr-20 11:29N 09°31' W 013°43'0 0.0
2018-Apr-20 10:59N 09°31' W 013°43'0 0.0
2018-Apr-20 10:29N 09°31' W 013°43'0 0.0
2018-Apr-20 09:59N 09°31' W 013°43'0 0.1
2018-Apr-20 09:30N 09°31' W 013°43'2 3.5
2018-Apr-20 09:00N 09°29' W 013°44'7 5.5
2018-Apr-20 07:41N 09°22' W 013°44'1 6.5
2018-Apr-20 07:30N 09°21' W 013°45'3 6.5
2018-Apr-20 07:01N 09°21' W 013°48'3 6.3
2018-Apr-20 06:31N 09°20' W 013°51'3 6.3
2018-Apr-20 06:00N 09°20' W 013°55'3 6.3
2018-Apr-20 05:30N 09°20' W 013°58'3 5.9
2018-Apr-20 04:59N 09°20' W 014°01'3 5.4
2018-Apr-20 04:30N 09°21' W 014°03'3 5.5
2018-Apr-20 04:01N 09°21' W 014°06'3 5.4
2018-Apr-20 03:31N 09°20' W 014°09'3 5.3
2018-Apr-20 03:01N 09°21' W 014°12'3 5.3
2018-Apr-20 02:30N 09°21' W 014°14'3 5.3
2018-Apr-20 02:00N 09°21' W 014°17'3 5.3
2018-Apr-20 01:31N 09°21' W 014°20'3 5.2
2018-Apr-20 01:01N 09°21' W 014°22'3 5.3
2018-Apr-20 00:31N 09°21' W 014°25'3 5.5
2018-Apr-20 00:00N 09°21' W 014°28'3 5.6
2018-Apr-19 23:30N 09°22' W 014°30'3 5.8
2018-Apr-19 23:00N 09°22' W 014°33'3 6.1
2018-Apr-19 22:30N 09°22' W 014°36'3 6.1
2018-Apr-19 22:00N 09°22' W 014°40'3 6.5
2018-Apr-19 21:31N 09°22' W 014°43'3 6.6
2018-Apr-19 21:01N 09°23' W 014°46'3 6.6
2018-Apr-19 20:31N 09°23' W 014°49'3 6.4
2018-Apr-19 20:00N 09°23' W 014°53'3 6.4
2018-Apr-19 19:29N 09°23' W 014°56'3 6.6
2018-Apr-19 18:59N 09°24' W 014°59'3 6.6
2018-Apr-19 18:31N 09°24' W 015°03'3 6.7
2018-Apr-19 18:01N 09°24' W 015°06'4 7.3
2018-Apr-19 17:30N 09°24' W 015°10'4 7.1
2018-Apr-19 17:00N 09°24' W 015°13'3 6.9
2018-Apr-19 16:30N 09°25' W 015°17'2 4.5
2018-Apr-19 16:00N 09°24' W 015°19'3 5.5
2018-Apr-19 15:30N 09°24' W 015°22'5 9.0
2018-Apr-19 14:58N 09°24' W 015°27'44 8.2
2018-Apr-19 09:34N 09°36' W 016°10'14413.6
2018-Apr-18 23:01N 11°39' W 017°26'615.9
2018-Apr-18 22:39N 11°45' W 017°27'416.1
2018-Apr-18 22:25N 11°49' W 017°27'716.1
2018-Apr-18 22:00N 11°56' W 017°27'815.7
2018-Apr-18 21:30N 12°03' W 017°28'  
2018-Apr-14 13:50N 35°58' W 005°36'412.5
2018-Apr-14 13:30N 35°59' W 005°32'611.9
2018-Apr-14 13:00N 36°02' W 005°25'612.1
2018-Apr-14 12:30N 36°08' W 005°24'2 4.1
2018-Apr-14 12:01N 36°09' W 005°26'0 0.0
2018-Apr-14 11:25N 36°09' W 005°26'0 0.0
2018-Apr-14 10:52N 36°09' W 005°26'0 0.0
2018-Apr-14 05:45N 36°09' W 005°26'0 0.0
2018-Apr-14 05:30N 36°09' W 005°26'0 0.0
2018-Apr-14 04:57N 36°09' W 005°26'0 0.0
2018-Apr-14 04:27N 36°09' W 005°26'0 0.0
2018-Apr-14 03:51N 36°09' W 005°26'0 0.0
2018-Apr-14 03:15N 36°09' W 005°26'0 0.0
2018-Apr-14 03:00N 36°09' W 005°26'0 0.0
2018-Apr-14 02:03N 36°09' W 005°26'0 0.0
2018-Apr-14 01:57N 36°09' W 005°26'0 0.0
2018-Apr-13 10:41N 36°09' W 005°26'0 0.0
2018-Apr-13 10:11N 36°09' W 005°26'0 0.0
2018-Apr-13 09:53N 36°09' W 005°26'0 0.0
2018-Apr-13 09:29N 36°09' W 005°26'0 0.0
2018-Apr-13 08:44N 36°09' W 005°26'0 0.0
2018-Apr-13 08:23N 36°09' W 005°26'0 0.0
2018-Apr-13 07:56N 36°09' W 005°26'0 0.0
2018-Apr-13 06:44N 36°09' W 005°26'0 0.0
2018-Apr-13 06:23N 36°09' W 005°26'0 0.0
2018-Apr-13 05:47N 36°09' W 005°26'0 0.0
2018-Apr-13 05:17N 36°09' W 005°26'0 0.0
2018-Apr-13 04:59N 36°09' W 005°26'0 0.0
2018-Apr-13 04:29N 36°09' W 005°26'0 0.0
2018-Apr-13 03:56N 36°09' W 005°26'0 0.0
2018-Apr-13 03:29N 36°09' W 005°26'0 0.0
2018-Apr-13 00:05N 36°09' W 005°26'0 0.1
2018-Apr-12 23:59N 36°09' W 005°26'0 0.0
2018-Apr-12 23:23N 36°09' W 005°26'0 0.0
2018-Apr-12 22:59N 36°09' W 005°26'0 0.0
2018-Apr-12 22:29N 36°09' W 005°26'0 0.0
2018-Apr-12 21:44N 36°09' W 005°26'0 0.0
2018-Apr-12 21:26N 36°09' W 005°26'0 0.0
2018-Apr-12 20:26N 36°09' W 005°26'0 0.0
2018-Apr-12 20:00N 36°09' W 005°26'2 3.6
2018-Apr-12 19:30N 36°08' W 005°24'3 6.7
2018-Apr-12 19:00N 36°05' W 005°23'1 2.5
2018-Apr-12 18:30N 36°04' W 005°22'1 2.7
2018-Apr-12 18:00N 36°03' W 005°21'2 4.2
2018-Apr-12 17:30N 36°03' W 005°18'1 1.8
2018-Apr-12 17:00N 36°03' W 005°17'1 1.0
2018-Apr-12 15:51N 36°04' W 005°18'2 5.2
2018-Apr-12 15:30N 36°03' W 005°20'3 5.8
2018-Apr-12 15:00N 36°03' W 005°17'3 6.6
2018-Apr-12 14:30N 36°03' W 005°13'  
Track history (hours):
 
Tides and Currents Weather Stations Pressure Air Temp Water Temp Dewpoint Dewpoint Depression Visibility Wind Speed Wind Dir Waves Ship Positions

Taasinge Maersk

Last reported at 2018-Apr-21 08:47 UTC. Time now 2018-Apr-24 08:57 UTC.
Position N 07°09' W 013°27'.

Length 191 m; draft 9.4 m.

Type: Cargo ship. MMSI: 220157000.

Date/timePositionNaut miles runAvg speedWind from/ knotsBaromVisibWave heightAir tempDewpointWater temp
2018-Apr-21 08:47N 07°09' W 013°27'516.5
2018-Apr-21 08:30N 07°11' W 013°31'816.7
2018-Apr-21 08:00N 07°16' W 013°38'816.6
2018-Apr-21 07:30N 07°21' W 013°45'916.6
2018-Apr-21 07:00N 07°26' W 013°52'816.6
2018-Apr-21 06:31N 07°31' W 013°58'816.7
2018-Apr-21 06:01N 07°37' W 014°05'816.5
2018-Apr-21 05:31N 07°42' W 014°11'816.6
2018-Apr-21 05:01N 07°49' W 014°15'816.2
2018-Apr-21 04:31N 07°57' W 014°17'816.8
2018-Apr-21 04:00N 08°05' W 014°18'917.1
2018-Apr-21 03:30N 08°14' W 014°18'817.0
2018-Apr-21 03:01N 08°22' W 014°18'816.7
2018-Apr-21 02:31N 08°31' W 014°17'917.3
2018-Apr-21 02:01N 08°39' W 014°13'917.1
2018-Apr-21 01:30N 08°46' W 014°10'816.8
2018-Apr-21 01:01N 08°53' W 014°05'816.7
2018-Apr-21 00:31N 08°60' W 013°60'816.6
2018-Apr-21 00:00N 09°07' W 013°55'916.4
2018-Apr-20 23:25N 09°14' W 013°49'716.0
2018-Apr-20 23:01N 09°19' W 013°45'713.6
2018-Apr-20 22:30N 09°26' W 013°43'4 8.3
2018-Apr-20 22:00N 09°30' W 013°44'0 0.9
2018-Apr-20 21:29N 09°31' W 013°43'0 0.0
2018-Apr-20 20:59N 09°31' W 013°43'0 0.0
2018-Apr-20 20:29N 09°31' W 013°43'0 0.0
2018-Apr-20 19:59N 09°31' W 013°43'0 0.0
2018-Apr-20 19:29N 09°31' W 013°43'0 0.0
2018-Apr-20 18:59N 09°31' W 013°43'0 0.0
2018-Apr-20 18:29N 09°31' W 013°43'0 0.0
2018-Apr-20 17:59N 09°31' W 013°43'0 0.0
2018-Apr-20 17:29N 09°31' W 013°43'0 0.0
2018-Apr-20 16:59N 09°31' W 013°43'0 0.0
2018-Apr-20 16:29N 09°31' W 013°43'0 0.0
2018-Apr-20 15:59N 09°31' W 013°43'0 0.0
2018-Apr-20 15:29N 09°31' W 013°43'0 0.0
2018-Apr-20 14:59N 09°31' W 013°43'0 0.0
2018-Apr-20 14:29N 09°31' W 013°43'0 0.0
2018-Apr-20 13:59N 09°31' W 013°43'0 0.0
2018-Apr-20 13:29N 09°31' W 013°43'0 0.0
2018-Apr-20 12:59N 09°31' W 013°43'0 0.0
2018-Apr-20 12:29N 09°31' W 013°43'0 0.0
2018-Apr-20 11:59N 09°31' W 013°43'0 0.0
2018-Apr-20 11:29N 09°31' W 013°43'0 0.0
2018-Apr-20 10:59N 09°31' W 013°43'0 0.0
2018-Apr-20 10:29N 09°31' W 013°43'0 0.0
2018-Apr-20 09:59N 09°31' W 013°43'0 0.1
2018-Apr-20 09:30N 09°31' W 013°43'2 3.5
2018-Apr-20 09:00N 09°29' W 013°44'7 5.5
2018-Apr-20 07:41N 09°22' W 013°44'1 6.5
2018-Apr-20 07:30N 09°21' W 013°45'3 6.5
2018-Apr-20 07:01N 09°21' W 013°48'3 6.3
2018-Apr-20 06:31N 09°20' W 013°51'3 6.3
2018-Apr-20 06:00N 09°20' W 013°55'3 6.3
2018-Apr-20 05:30N 09°20' W 013°58'3 5.9
2018-Apr-20 04:59N 09°20' W 014°01'3 5.4
2018-Apr-20 04:30N 09°21' W 014°03'3 5.5
2018-Apr-20 04:01N 09°21' W 014°06'3 5.4
2018-Apr-20 03:31N 09°20' W 014°09'3 5.3
2018-Apr-20 03:01N 09°21' W 014°12'3 5.3
2018-Apr-20 02:30N 09°21' W 014°14'3 5.3
2018-Apr-20 02:00N 09°21' W 014°17'3 5.3
2018-Apr-20 01:31N 09°21' W 014°20'3 5.2
2018-Apr-20 01:01N 09°21' W 014°22'3 5.3
2018-Apr-20 00:31N 09°21' W 014°25'3 5.5
2018-Apr-20 00:00N 09°21' W 014°28'3 5.6
2018-Apr-19 23:30N 09°22' W 014°30'3 5.8
2018-Apr-19 23:00N 09°22' W 014°33'3 6.1
2018-Apr-19 22:30N 09°22' W 014°36'3 6.1
2018-Apr-19 22:00N 09°22' W 014°40'3 6.5
2018-Apr-19 21:31N 09°22' W 014°43'3 6.6
2018-Apr-19 21:01N 09°23' W 014°46'3 6.6
2018-Apr-19 20:31N 09°23' W 014°49'3 6.4
2018-Apr-19 20:00N 09°23' W 014°53'3 6.4
2018-Apr-19 19:29N 09°23' W 014°56'3 6.6
2018-Apr-19 18:59N 09°24' W 014°59'3 6.6
2018-Apr-19 18:31N 09°24' W 015°03'3 6.7
2018-Apr-19 18:01N 09°24' W 015°06'4 7.3
2018-Apr-19 17:30N 09°24' W 015°10'4 7.1
2018-Apr-19 17:00N 09°24' W 015°13'3 6.9
2018-Apr-19 16:30N 09°25' W 015°17'2 4.5
2018-Apr-19 16:00N 09°24' W 015°19'3 5.5
2018-Apr-19 15:30N 09°24' W 015°22'5 9.0
2018-Apr-19 14:58N 09°24' W 015°27'44 8.2
2018-Apr-19 09:34N 09°36' W 016°10'14413.6
2018-Apr-18 23:01N 11°39' W 017°26'615.9
2018-Apr-18 22:39N 11°45' W 017°27'416.1
2018-Apr-18 22:25N 11°49' W 017°27'716.1
2018-Apr-18 22:00N 11°56' W 017°27'815.7
2018-Apr-18 21:30N 12°03' W 017°28'  
2018-Apr-14 13:50N 35°58' W 005°36'412.5
2018-Apr-14 13:30N 35°59' W 005°32'611.9
2018-Apr-14 13:00N 36°02' W 005°25'612.1
2018-Apr-14 12:30N 36°08' W 005°24'2 4.1
2018-Apr-14 12:01N 36°09' W 005°26'0 0.0
2018-Apr-14 11:25N 36°09' W 005°26'0 0.0
2018-Apr-14 10:52N 36°09' W 005°26'0 0.0
2018-Apr-14 05:45N 36°09' W 005°26'0 0.0
2018-Apr-14 05:30N 36°09' W 005°26'0 0.0
2018-Apr-14 04:57N 36°09' W 005°26'0 0.0
2018-Apr-14 04:27N 36°09' W 005°26'0 0.0
2018-Apr-14 03:51N 36°09' W 005°26'0 0.0
2018-Apr-14 03:15N 36°09' W 005°26'0 0.0
2018-Apr-14 03:00N 36°09' W 005°26'0 0.0
2018-Apr-14 02:03N 36°09' W 005°26'0 0.0
2018-Apr-14 01:57N 36°09' W 005°26'0 0.0
2018-Apr-13 10:41N 36°09' W 005°26'0 0.0
2018-Apr-13 10:11N 36°09' W 005°26'0 0.0
2018-Apr-13 09:53N 36°09' W 005°26'0 0.0
2018-Apr-13 09:29N 36°09' W 005°26'0 0.0
2018-Apr-13 08:44N 36°09' W 005°26'0 0.0
2018-Apr-13 08:23N 36°09' W 005°26'0 0.0
2018-Apr-13 07:56N 36°09' W 005°26'0 0.0
2018-Apr-13 06:44N 36°09' W 005°26'0 0.0
2018-Apr-13 06:23N 36°09' W 005°26'0 0.0
2018-Apr-13 05:47N 36°09' W 005°26'0 0.0
2018-Apr-13 05:17N 36°09' W 005°26'0 0.0
2018-Apr-13 04:59N 36°09' W 005°26'0 0.0
2018-Apr-13 04:29N 36°09' W 005°26'0 0.0
2018-Apr-13 03:56N 36°09' W 005°26'0 0.0
2018-Apr-13 03:29N 36°09' W 005°26'0 0.0
2018-Apr-13 00:05N 36°09' W 005°26'0 0.1
2018-Apr-12 23:59N 36°09' W 005°26'0 0.0
2018-Apr-12 23:23N 36°09' W 005°26'0 0.0
2018-Apr-12 22:59N 36°09' W 005°26'0 0.0
2018-Apr-12 22:29N 36°09' W 005°26'0 0.0
2018-Apr-12 21:44N 36°09' W 005°26'0 0.0
2018-Apr-12 21:26N 36°09' W 005°26'0 0.0
2018-Apr-12 20:26N 36°09' W 005°26'0 0.0
2018-Apr-12 20:00N 36°09' W 005°26'2 3.6
2018-Apr-12 19:30N 36°08' W 005°24'3 6.7
2018-Apr-12 19:00N 36°05' W 005°23'1 2.5
2018-Apr-12 18:30N 36°04' W 005°22'1 2.7
2018-Apr-12 18:00N 36°03' W 005°21'2 4.2
2018-Apr-12 17:30N 36°03' W 005°18'1 1.8
2018-Apr-12 17:00N 36°03' W 005°17'1 1.0
2018-Apr-12 15:51N 36°04' W 005°18'2 5.2
2018-Apr-12 15:30N 36°03' W 005°20'3 5.8
2018-Apr-12 15:00N 36°03' W 005°17'3 6.6
2018-Apr-12 14:30N 36°03' W 005°13'  

Dump ship's entire track history